Time;durP1;ratioP1;P1;durP2;ratioP2;P2;SDS_P1;SDS_P2;PMS_P1;PMS_P2;Temp;Humidity;BMP_temperature;BMP_pressure;BME280_temperature;BME280_humidity;BME280_pressure;Samples;Min_cycle;Max_cycle;Signal;HPM_P1;HPM_P2
2023/09/27 00:01:17;;;;;;;0.10;0.10;;;;;;;;;;4806198;29;20047;-85
2023/09/27 00:03:43;;;;;;;0.10;0.10;;;;;;;;;;4806102;29;20103;-85
2023/09/27 00:06:09;;;;;;;0.10;0.10;;;;;;;;;;4805942;29;20411;-85
2023/09/27 00:08:35;;;;;;;0.20;0.20;;;;;;;;;;4805831;29;20150;-85
2023/09/27 00:11:02;;;;;;;0.10;0.10;;;;;;;;;;4806085;29;20051;-85
2023/09/27 00:13:29;;;;;;;0.10;0.10;;;;;;;;;;4790862;29;20085;-85
2023/09/27 00:15:54;;;;;;;0.10;0.10;;;;;;;;;;4805501;29;20078;-85
2023/09/27 00:18:20;;;;;;;0.10;0.10;;;;;;;;;;4805721;29;20051;-85
2023/09/27 00:20:46;;;;;;;0.10;0.10;;;;;;;;;;4790746;29;20047;-85
2023/09/27 00:23:12;;;;;;;0.20;0.20;;;;;;;;;;4790639;29;20054;-85
2023/09/27 00:25:38;;;;;;;0.10;0.10;;;;;;;;;;4789823;29;20445;-85
2023/09/27 00:28:05;;;;;;;0.10;0.10;;;;;;;;;;4806754;29;20411;-85
2023/09/27 00:30:31;;;;;;;0.10;0.10;;;;;;;;;;4790712;29;20057;-85
2023/09/27 00:32:57;;;;;;;0.20;0.20;;;;;;;;;;4790511;29;20133;-85
2023/09/27 00:35:23;;;;;;;0.10;0.10;;;;;;;;;;4790559;29;20530;-85
2023/09/27 00:37:50;;;;;;;0.10;0.10;;;;;;;;;;4805409;29;20118;-85
2023/09/27 00:40:18;;;;;;;0.10;0.10;;;;;;;;;;4790671;29;20130;-85
2023/09/27 00:42:44;;;;;;;0.20;0.20;;;;;;;;;;4790601;29;20066;-85
2023/09/27 00:45:10;;;;;;;0.10;0.10;;;;;;;;;;4790025;29;20057;-85
2023/09/27 00:47:37;;;;;;;0.10;0.10;;;;;;;;;;4805150;29;20488;-85
2023/09/27 00:50:03;;;;;;;0.10;0.10;;;;;;;;;;4790354;29;20554;-84
2023/09/27 00:52:29;;;;;;;0.10;0.10;;;;;;;;;;4805458;29;20049;-85
2023/09/27 00:54:56;;;;;;;0.20;0.20;;;;;;;;;;4804905;29;20054;-85
2023/09/27 00:57:25;;;;;;;0.10;0.10;;;;;;;;;;4776091;29;20096;-85
2023/09/27 00:59:51;;;;;;;0.10;0.10;;;;;;;;;;4790066;29;20046;-85
2023/09/27 01:02:17;;;;;;;0.20;0.20;;;;;;;;;;4789961;29;20085;-85
2023/09/27 01:04:43;;;;;;;0.10;0.10;;;;;;;;;;4804831;29;20050;-85
2023/09/27 01:07:09;;;;;;;0.10;0.10;;;;;;;;;;4804879;29;20058;-84
2023/09/27 01:09:37;;;;;;;0.32;0.32;;;;;;;;;;4789892;29;20046;-86
2023/09/27 01:12:03;;;;;;;0.10;0.10;;;;;;;;;;4775235;29;20607;-86
2023/09/27 01:14:29;;;;;;;0.10;0.10;;;;;;;;;;4789762;29;20046;-85
2023/09/27 01:16:55;;;;;;;0.10;0.10;;;;;;;;;;4789776;29;20407;-85
2023/09/27 01:19:21;;;;;;;0.10;0.10;;;;;;;;;;4804654;29;20529;-85
2023/09/27 01:21:47;;;;;;;0.10;0.10;;;;;;;;;;4789761;29;20549;-85
2023/09/27 01:24:13;;;;;;;0.20;0.20;;;;;;;;;;4789613;29;20408;-85
2023/09/27 01:26:39;;;;;;;0.10;0.10;;;;;;;;;;4789395;29;20165;-84
2023/09/27 01:29:05;;;;;;;0.10;0.10;;;;;;;;;;4789611;29;20051;-85
2023/09/27 01:31:31;;;;;;;0.10;0.10;;;;;;;;;;4804869;29;20042;-85
2023/09/27 01:33:58;;;;;;;0.10;0.10;;;;;;;;;;4804572;29;20058;-86
2023/09/27 01:36:24;;;;;;;0.15;0.15;;;;;;;;;;4804219;29;20514;-85
2023/09/27 01:38:50;;;;;;;0.10;0.10;;;;;;;;;;4774084;29;20133;-85
2023/09/27 01:41:16;;;;;;;0.10;0.10;;;;;;;;;;4789521;29;20133;-85
2023/09/27 01:43:43;;;;;;;0.30;0.30;;;;;;;;;;4804342;29;20054;-86
2023/09/27 01:46:09;;;;;;;0.10;0.10;;;;;;;;;;4774475;29;20053;-85
2023/09/27 01:48:35;;;;;;;0.10;0.10;;;;;;;;;;4789338;29;20126;-86
2023/09/27 01:51:02;;;;;;;0.20;0.20;;;;;;;;;;4789264;29;20047;-86
2023/09/27 01:53:28;;;;;;;0.10;0.10;;;;;;;;;;4804237;29;20047;-85
2023/09/27 01:55:54;;;;;;;0.10;0.10;;;;;;;;;;4803913;29;20054;-85
2023/09/27 01:58:20;;;;;;;0.10;0.10;;;;;;;;;;4789186;29;20576;-85
2023/09/27 02:00:46;;;;;;;0.10;0.10;;;;;;;;;;4774331;29;20506;-84
2023/09/27 02:03:12;;;;;;;0.10;0.10;;;;;;;;;;4804078;29;20423;-85
2023/09/27 02:05:38;;;;;;;0.10;0.10;;;;;;;;;;4803914;29;20504;-84
2023/09/27 02:08:04;;;;;;;0.20;0.20;;;;;;;;;;4789197;29;20454;-85
2023/09/27 02:10:30;;;;;;;0.10;0.10;;;;;;;;;;4803827;29;20219;-85
2023/09/27 02:12:56;;;;;;;0.10;0.10;;;;;;;;;;4774020;29;20164;-86
2023/09/27 02:15:22;;;;;;;0.10;0.10;;;;;;;;;;4788721;29;20537;-85
2023/09/27 02:17:48;;;;;;;0.10;0.10;;;;;;;;;;4774063;29;20065;-85
2023/09/27 02:20:14;;;;;;;0.10;0.10;;;;;;;;;;4803887;29;20532;-86
2023/09/27 02:22:41;;;;;;;0.10;0.10;;;;;;;;;;4803807;29;20487;-85
2023/09/27 02:25:11;;;;;;;0.10;0.10;;;;;;;;;;4789099;29;20090;-85
2023/09/27 02:27:37;;;;;;;0.10;0.10;;;;;;;;;;4788965;29;20128;-85
2023/09/27 02:30:06;;;;;;;0.10;0.10;;;;;;;;;;4788900;29;20046;-85
2023/09/27 02:32:32;;;;;;;0.10;0.10;;;;;;;;;;4774210;29;20054;-86
2023/09/27 02:34:58;;;;;;;0.10;0.10;;;;;;;;;;4788750;29;20116;-86
2023/09/27 02:37:24;;;;;;;0.10;0.10;;;;;;;;;;4803669;29;20047;-86
2023/09/27 02:39:50;;;;;;;0.10;0.10;;;;;;;;;;4803593;29;20101;-85
2023/09/27 02:42:16;;;;;;;0.10;0.10;;;;;;;;;;4803958;29;20373;-85
2023/09/27 02:44:42;;;;;;;0.10;0.10;;;;;;;;;;4804896;29;20043;-85
2023/09/27 02:47:08;;;;;;;0.45;0.45;;;;;;;;;;4788815;29;20047;-86
2023/09/27 02:49:35;;;;;;;0.10;0.10;;;;;;;;;;4790570;29;20456;-85
2023/09/27 02:52:01;;;;;;;0.10;0.10;;;;;;;;;;4807167;29;20051;-85
2023/09/27 02:54:27;;;;;;;0.10;0.10;;;;;;;;;;4777358;29;20168;-85
2023/09/27 02:56:53;;;;;;;0.10;0.10;;;;;;;;;;4807092;29;20120;-85
2023/09/27 02:59:19;;;;;;;0.10;0.10;;;;;;;;;;4792104;29;20137;-85
2023/09/27 03:01:45;;;;;;;0.10;0.10;;;;;;;;;;4807073;29;20079;-85
2023/09/27 03:04:11;;;;;;;0.10;0.10;;;;;;;;;;4806911;29;20147;-85
2023/09/27 03:06:41;;;;;;;0.10;0.10;;;;;;;;;;4792318;29;20449;-85
2023/09/27 03:09:08;;;;;;;0.10;0.10;;;;;;;;;;4777272;29;20086;-85
2023/09/27 03:11:34;;;;;;;0.10;0.10;;;;;;;;;;4806914;29;20055;-85
2023/09/27 03:14:00;;;;;;;0.10;0.10;;;;;;;;;;4791946;29;20449;-85
2023/09/27 03:16:26;;;;;;;0.10;0.10;;;;;;;;;;4806635;29;20412;-85
2023/09/27 03:18:54;;;;;;;0.10;0.10;;;;;;;;;;4791777;29;20505;-85
2023/09/27 03:21:20;;;;;;;0.10;0.10;;;;;;;;;;4806597;29;20054;-85
2023/09/27 03:23:47;;;;;;;0.10;0.10;;;;;;;;;;4791542;29;20054;-86
2023/09/27 03:26:12;;;;;;;0.10;0.10;;;;;;;;;;4791403;29;20059;-85
2023/09/27 03:28:38;;;;;;;0.10;0.10;;;;;;;;;;4791713;29;20507;-86
2023/09/27 03:31:05;;;;;;;0.10;0.10;;;;;;;;;;4791536;29;20054;-86
2023/09/27 03:33:31;;;;;;;0.10;0.10;;;;;;;;;;4791556;29;20050;-86
2023/09/27 03:35:57;;;;;;;0.10;0.10;;;;;;;;;;4791210;29;20054;-85
2023/09/27 03:38:24;;;;;;;0.10;0.10;;;;;;;;;;4791458;29;20046;-85
2023/09/27 03:40:51;;;;;;;0.10;0.10;;;;;;;;;;4806297;29;20051;-85
2023/09/27 03:43:17;;;;;;;0.10;0.10;;;;;;;;;;4807574;29;20050;-85
2023/09/27 03:45:43;;;;;;;0.10;0.10;;;;;;;;;;4806295;29;20050;-86
2023/09/27 03:48:09;;;;;;;0.10;0.10;;;;;;;;;;4791861;29;20104;-85
2023/09/27 03:50:35;;;;;;;0.17;0.17;;;;;;;;;;4791365;29;20051;-86
2023/09/27 03:53:01;;;;;;;0.10;0.10;;;;;;;;;;4806434;29;20050;-86
2023/09/27 03:55:27;;;;;;;0.10;0.10;;;;;;;;;;4805917;29;20175;-85
2023/09/27 03:57:53;;;;;;;0.10;0.10;;;;;;;;;;4806309;29;20051;-85
2023/09/27 04:00:19;;;;;;;0.10;0.10;;;;;;;;;;4790062;29;20099;-86
2023/09/27 04:02:46;;;;;;;0.10;0.10;;;;;;;;;;4806225;29;20441;-85
2023/09/27 04:05:12;;;;;;;0.10;0.10;;;;;;;;;;4791068;29;20055;-86
2023/09/27 04:07:39;;;;;;;0.10;0.10;;;;;;;;;;4791012;29;20102;-86
2023/09/27 04:10:05;;;;;;;0.10;0.10;;;;;;;;;;4805912;29;20050;-85
2023/09/27 04:12:31;;;;;;;0.10;0.10;;;;;;;;;;4805706;29;20098;-85
2023/09/27 04:14:57;;;;;;;0.10;0.10;;;;;;;;;;4805586;29;20050;-85
2023/09/27 04:17:23;;;;;;;0.10;0.10;;;;;;;;;;4805968;29;20043;-85
2023/09/27 04:19:53;;;;;;;0.10;0.10;;;;;;;;;;4805530;29;20046;-85
2023/09/27 04:22:19;;;;;;;0.10;0.10;;;;;;;;;;4790864;29;20417;-85
2023/09/27 04:24:45;;;;;;;0.10;0.10;;;;;;;;;;4805628;29;20096;-85
2023/09/27 04:27:12;;;;;;;0.10;0.10;;;;;;;;;;4805531;29;20070;-85
2023/09/27 04:29:38;;;;;;;0.10;0.10;;;;;;;;;;4790660;29;20055;-85
2023/09/27 04:32:04;;;;;;;0.10;0.10;;;;;;;;;;4805316;29;20142;-85
2023/09/27 04:34:30;;;;;;;0.10;0.10;;;;;;;;;;4805346;29;20055;-86
2023/09/27 04:36:56;;;;;;;0.10;0.10;;;;;;;;;;4790353;29;20054;-85
2023/09/27 04:39:26;;;;;;;0.15;0.15;;;;;;;;;;4805514;29;20442;-85
2023/09/27 04:41:53;;;;;;;0.10;0.10;;;;;;;;;;4791103;29;20057;-85
2023/09/27 04:44:19;;;;;;;0.10;0.10;;;;;;;;;;4775487;29;20058;-84
2023/09/27 04:46:45;;;;;;;0.10;0.10;;;;;;;;;;4790479;29;20055;-85
2023/09/27 04:49:11;;;;;;;0.10;0.10;;;;;;;;;;4805250;29;20503;-85
2023/09/27 04:51:37;;;;;;;0.10;0.10;;;;;;;;;;4805382;29;20058;-86
2023/09/27 04:54:03;;;;;;;0.10;0.10;;;;;;;;;;4775243;29;20522;-85
2023/09/27 04:56:30;;;;;;;0.10;0.10;;;;;;;;;;4805020;29;20091;-86
2023/09/27 04:58:56;;;;;;;0.10;0.10;;;;;;;;;;4805041;29;20125;-86
2023/09/27 05:01:22;;;;;;;0.10;0.10;;;;;;;;;;4789989;29;20513;-86
2023/09/27 05:03:51;;;;;;;0.10;0.10;;;;;;;;;;4806112;29;20075;-85
2023/09/27 05:06:17;;;;;;;0.10;0.10;;;;;;;;;;4804958;29;20515;-86
2023/09/27 05:08:44;;;;;;;0.10;0.10;;;;;;;;;;4790091;29;20138;-85
2023/09/27 05:11:10;;;;;;;0.10;0.10;;;;;;;;;;4789894;29;20244;-86
2023/09/27 05:13:36;;;;;;;0.10;0.10;;;;;;;;;;4789645;29;20051;-86
2023/09/27 05:16:03;;;;;;;0.10;0.10;;;;;;;;;;4804490;29;20057;-86
2023/09/27 05:18:29;;;;;;;0.10;0.10;;;;;;;;;;4789818;29;20059;-85
2023/09/27 05:20:56;;;;;;;0.10;0.10;;;;;;;;;;4804570;29;20043;-85
2023/09/27 05:23:22;;;;;;;0.10;0.10;;;;;;;;;;4790068;29;20403;-86
2023/09/27 05:25:48;;;;;;;0.10;0.10;;;;;;;;;;4789701;29;20046;-86
2023/09/27 05:28:14;;;;;;;0.20;0.20;;;;;;;;;;4804578;29;20061;-86
2023/09/27 05:30:40;;;;;;;0.10;0.10;;;;;;;;;;4804481;29;20137;-86
2023/09/27 05:33:06;;;;;;;0.10;0.10;;;;;;;;;;4789732;29;20086;-86
2023/09/27 05:35:32;;;;;;;0.10;0.10;;;;;;;;;;4804437;29;20058;-86
2023/09/27 05:37:58;;;;;;;0.10;0.10;;;;;;;;;;4789358;29;20043;-86
2023/09/27 05:40:24;;;;;;;0.20;0.20;;;;;;;;;;4789471;29;20082;-86
2023/09/27 05:42:50;;;;;;;0.10;0.10;;;;;;;;;;4774730;29;20444;-86
2023/09/27 05:45:16;;;;;;;0.10;0.10;;;;;;;;;;4804189;29;20057;-86
2023/09/27 05:47:43;;;;;;;0.10;0.10;;;;;;;;;;4789335;29;20055;-86
2023/09/27 05:50:09;;;;;;;0.10;0.10;;;;;;;;;;4789484;29;20054;-87
2023/09/27 05:52:35;;;;;;;0.10;0.10;;;;;;;;;;4789264;29;20057;-86
2023/09/27 05:55:02;;;;;;;0.10;0.10;;;;;;;;;;4789131;29;20112;-86
2023/09/27 05:57:28;;;;;;;0.10;0.10;;;;;;;;;;4804100;29;20057;-86
2023/09/27 05:59:54;;;;;;;0.10;0.10;;;;;;;;;;4803994;29;20046;-86
2023/09/27 06:02:20;;;;;;;0.10;0.10;;;;;;;;;;4803081;29;20104;-86
2023/09/27 06:04:46;;;;;;;0.20;0.20;;;;;;;;;;4804241;29;20050;-87
2023/09/27 06:07:14;;;;;;;0.10;0.10;;;;;;;;;;4789376;29;20046;-86
2023/09/27 06:09:43;;;;;;;0.10;0.10;;;;;;;;;;4788862;29;20043;-86
2023/09/27 06:12:10;;;;;;;0.10;0.10;;;;;;;;;;4788843;29;20047;-86
2023/09/27 06:14:36;;;;;;;0.10;0.10;;;;;;;;;;4792837;29;20074;-86
2023/09/27 06:17:02;;;;;;;0.10;0.10;;;;;;;;;;4803882;29;20091;-87
2023/09/27 06:19:28;;;;;;;0.10;0.10;;;;;;;;;;4794839;29;20111;-86
2023/09/27 06:21:54;;;;;;;0.20;0.20;;;;;;;;;;4822063;29;20488;-86
2023/09/27 06:24:20;;;;;;;0.20;0.20;;;;;;;;;;4807549;29;20050;-86
2023/09/27 06:26:46;;;;;;;0.10;0.10;;;;;;;;;;4809652;29;20107;-86
2023/09/27 06:29:13;;;;;;;0.10;0.10;;;;;;;;;;4794600;29;20483;-86
2023/09/27 06:31:39;;;;;;;0.20;0.20;;;;;;;;;;4809939;29;20079;-87
2023/09/27 06:34:06;;;;;;;0.10;0.10;;;;;;;;;;4811875;29;20042;-86
2023/09/27 06:36:34;;;;;;;0.17;0.17;;;;;;;;;;4797899;29;20074;-86
2023/09/27 06:39:00;;;;;;;0.15;0.15;;;;;;;;;;4797946;29;20046;-86
2023/09/27 06:41:27;;;;;;;0.10;0.10;;;;;;;;;;4827999;29;20046;-86
2023/09/27 06:43:53;;;;;;;0.20;0.20;;;;;;;;;;4812612;29;20069;-86
2023/09/27 06:46:21;;;;;;;0.10;0.10;;;;;;;;;;4812937;29;20102;-86
2023/09/27 06:48:48;;;;;;;0.10;0.10;;;;;;;;;;4813231;29;20106;-87
2023/09/27 06:51:14;;;;;;;0.10;0.10;;;;;;;;;;4827713;29;20050;-85
2023/09/27 06:53:40;;;;;;;0.10;0.10;;;;;;;;;;4827781;29;20049;-86
2023/09/27 06:56:06;;;;;;;0.10;0.10;;;;;;;;;;4812279;29;20518;-86
2023/09/27 06:58:32;;;;;;;0.10;0.10;;;;;;;;;;4827648;29;20087;-86
2023/09/27 07:00:58;;;;;;;0.10;0.10;;;;;;;;;;4812451;29;20106;-86
2023/09/27 07:03:25;;;;;;;0.10;0.10;;;;;;;;;;4827668;29;20050;-86
2023/09/27 07:05:54;;;;;;;0.10;0.10;;;;;;;;;;4827876;29;20112;-88
2023/09/27 07:08:20;;;;;;;0.10;0.10;;;;;;;;;;4812736;29;20042;-86
2023/09/27 07:10:47;;;;;;;0.10;0.10;;;;;;;;;;4812526;29;20089;-87
2023/09/27 07:13:13;;;;;;;0.20;0.20;;;;;;;;;;4812842;29;20050;-86
2023/09/27 07:15:39;;;;;;;0.10;0.10;;;;;;;;;;4827245;29;20175;-86
2023/09/27 07:18:05;;;;;;;0.10;0.10;;;;;;;;;;4812777;29;20048;-86
2023/09/27 07:20:36;;;;;;;0.20;0.20;;;;;;;;;;4812456;29;20057;-86
2023/09/27 07:23:04;;;;;;;0.10;0.10;;;;;;;;;;4827443;29;20050;-86
2023/09/27 07:25:33;;;;;;;0.20;0.20;;;;;;;;;;4812474;29;20055;-86
2023/09/27 07:27:59;;;;;;;0.20;0.20;;;;;;;;;;4812131;29;20066;-86
2023/09/27 07:30:25;;;;;;;1.88;0.30;;;;;;;;;;4827504;29;20081;-86
2023/09/27 07:32:51;;;;;;;0.10;0.10;;;;;;;;;;4812652;29;20110;-86
2023/09/27 07:35:18;;;;;;;0.20;0.20;;;;;;;;;;4810861;29;20050;-86
2023/09/27 07:37:45;;;;;;;0.10;0.10;;;;;;;;;;4824689;29;20352;-86
2023/09/27 07:40:12;;;;;;;0.10;0.10;;;;;;;;;;4809611;29;20042;-86
2023/09/27 07:42:40;;;;;;;0.10;0.10;;;;;;;;;;4809476;29;20057;-86
2023/09/27 07:45:08;;;;;;;0.10;0.10;;;;;;;;;;4809337;29;20433;-86
2023/09/27 07:47:34;;;;;;;0.10;0.10;;;;;;;;;;4807999;29;20062;-86
2023/09/27 07:50:00;;;;;;;0.20;0.20;;;;;;;;;;4805766;29;20051;-86
2023/09/27 07:52:26;;;;;;;0.10;0.10;;;;;;;;;;4791190;29;20046;-87
2023/09/27 07:54:52;;;;;;;0.20;0.20;;;;;;;;;;4823033;29;20078;-86
2023/09/27 07:57:18;;;;;;;0.10;0.10;;;;;;;;;;4809399;29;20046;-87
2023/09/27 07:59:44;;;;;;;0.20;0.20;;;;;;;;;;4805826;29;20035;-86
2023/09/27 08:02:11;;;;;;;0.10;0.10;;;;;;;;;;4791143;29;20043;-87
2023/09/27 08:04:40;;;;;;;0.10;0.10;;;;;;;;;;4790640;29;20074;-87
2023/09/27 08:07:06;;;;;;;0.10;0.10;;;;;;;;;;4806025;29;20159;-87
2023/09/27 08:09:36;;;;;;;0.10;0.10;;;;;;;;;;4806513;29;20069;-87
2023/09/27 08:12:03;;;;;;;0.10;0.10;;;;;;;;;;4824014;29;20050;-87
2023/09/27 08:14:29;;;;;;;0.30;0.30;;;;;;;;;;4824024;29;20449;-87
2023/09/27 08:16:55;;;;;;;0.20;0.20;;;;;;;;;;4823944;29;20043;-87
2023/09/27 08:19:21;;;;;;;0.10;0.10;;;;;;;;;;4823781;29;20487;-86
2023/09/27 08:21:47;;;;;;;0.10;0.10;;;;;;;;;;4808819;29;20061;-86
2023/09/27 08:24:13;;;;;;;0.10;0.10;;;;;;;;;;4808807;29;20038;-86
2023/09/27 08:26:39;;;;;;;0.10;0.10;;;;;;;;;;4823552;29;20066;-86
2023/09/27 08:29:05;;;;;;;0.10;0.10;;;;;;;;;;4823628;29;20050;-86
2023/09/27 08:31:36;;;;;;;0.10;0.10;;;;;;;;;;4809117;29;20141;-86
2023/09/27 08:34:02;;;;;;;0.10;0.10;;;;;;;;;;4809110;29;20058;-86
2023/09/27 08:36:29;;;;;;;0.10;0.10;;;;;;;;;;4823713;29;20137;-85
2023/09/27 08:38:55;;;;;;;0.10;0.10;;;;;;;;;;4822127;29;20451;-87
2023/09/27 08:41:22;;;;;;;0.10;0.10;;;;;;;;;;4824168;29;20064;-88
2023/09/27 08:43:48;;;;;;;0.10;0.10;;;;;;;;;;4824005;29;20047;-86
2023/09/27 08:46:14;;;;;;;0.28;0.28;;;;;;;;;;4808171;29;20050;-86
2023/09/27 08:48:40;;;;;;;0.10;0.10;;;;;;;;;;4808405;29;20050;-89
2023/09/27 08:51:06;;;;;;;0.10;0.10;;;;;;;;;;4808412;29;20043;-87
2023/09/27 08:53:34;;;;;;;0.15;0.15;;;;;;;;;;4824922;29;20049;-86
2023/09/27 08:56:01;;;;;;;0.20;0.20;;;;;;;;;;4808331;29;20392;-86
2023/09/27 08:58:27;;;;;;;0.10;0.10;;;;;;;;;;4808343;29;20050;-86
2023/09/27 09:00:53;;;;;;;0.20;0.20;;;;;;;;;;4808693;29;20050;-86
2023/09/27 09:03:19;;;;;;;0.20;0.20;;;;;;;;;;4823668;29;20065;-86
2023/09/27 09:05:47;;;;;;;0.20;0.20;;;;;;;;;;4823311;29;20061;-87
2023/09/27 09:08:14;;;;;;;0.20;0.20;;;;;;;;;;4808455;29;20085;-87
2023/09/27 09:10:40;;;;;;;0.20;0.20;;;;;;;;;;4823330;29;20517;-87
2023/09/27 09:13:06;;;;;;;0.20;0.20;;;;;;;;;;4808122;29;20125;-87
2023/09/27 09:15:39;;;;;;;0.10;0.10;;;;;;;;;;4807716;29;20077;-86
2023/09/27 09:18:06;;;;;;;0.10;0.10;;;;;;;;;;4823127;29;20127;-86
2023/09/27 09:20:33;;;;;;;0.20;0.20;;;;;;;;;;4823242;29;20114;-87
2023/09/27 09:23:03;;;;;;;0.20;0.20;;;;;;;;;;4808080;29;20042;-88
2023/09/27 09:25:29;;;;;;;0.10;0.10;;;;;;;;;;4808413;29;20050;-86
2023/09/27 09:28:02;;;;;;;0.10;0.10;;;;;;;;;;4807851;29;20085;-86
2023/09/27 09:30:38;;;;;;;0.10;0.10;;;;;;;;;;4823055;29;20061;-86
2023/09/27 09:33:09;;;;;;;0.10;0.10;;;;;;;;;;4807893;29;20129;-87
2023/09/27 09:35:35;;;;;;;0.13;0.13;;;;;;;;;;4823027;29;20046;-87
2023/09/27 09:38:01;;;;;;;0.20;0.20;;;;;;;;;;4822956;29;20419;-86
2023/09/27 09:40:27;;;;;;;0.10;0.10;;;;;;;;;;4809390;29;20083;-87
2023/09/27 09:42:53;;;;;;;0.20;0.20;;;;;;;;;;4820839;29;20045;-87
2023/09/27 09:45:20;;;;;;;1.23;0.60;;;;;;;;;;4795384;29;20503;-87
2023/09/27 09:47:46;;;;;;;0.10;0.10;;;;;;;;;;4812826;29;20187;-87
2023/09/27 09:50:19;;;;;;;0.20;0.20;;;;;;;;;;4800020;29;20095;-87
2023/09/27 09:52:53;;;;;;;0.10;0.10;;;;;;;;;;4822364;29;20039;-86
2023/09/27 09:55:20;;;;;;;0.20;0.20;;;;;;;;;;4818697;29;20150;-86
2023/09/27 09:57:46;;;;;;;0.10;0.10;;;;;;;;;;4807357;29;20106;-87
2023/09/27 10:00:17;;;;;;;0.10;0.10;;;;;;;;;;4789746;29;20133;-86
2023/09/27 10:02:47;;;;;;;0.20;0.20;;;;;;;;;;4803735;29;20050;-87
2023/09/27 10:05:13;;;;;;;0.10;0.10;;;;;;;;;;4805793;29;20054;-85
2023/09/27 10:07:40;;;;;;;0.10;0.10;;;;;;;;;;4792140;29;20175;-87
2023/09/27 10:10:08;;;;;;;0.13;0.13;;;;;;;;;;4806687;29;20054;-87
2023/09/27 10:12:34;;;;;;;0.20;0.20;;;;;;;;;;4806739;29;20081;-86
2023/09/27 10:15:01;;;;;;;0.20;0.20;;;;;;;;;;4807408;29;20159;-85
2023/09/27 10:17:29;;;;;;;0.20;0.20;;;;;;;;;;4795622;29;20056;-85
2023/09/27 10:20:14;;;;;;;0.20;0.20;;;;;;;;;;4818411;29;20046;-86
2023/09/27 10:22:40;;;;;;;0.20;0.20;;;;;;;;;;4823241;29;20474;-86
2023/09/27 10:25:27;;;;;;;0.10;0.10;;;;;;;;;;4822411;29;20050;-86
2023/09/27 10:28:02;;;;;;;1.55;1.23;;;;;;;;;;4821885;29;20062;-86
2023/09/27 10:30:28;;;;;;;0.10;0.10;;;;;;;;;;4837074;29;20058;-87
2023/09/27 10:33:13;;;;;;;0.10;0.10;;;;;;;;;;4807192;29;20081;-88
2023/09/27 10:35:39;;;;;;;0.20;0.20;;;;;;;;;;4837404;29;20047;-87
2023/09/27 10:38:09;;;;;;;0.32;0.32;;;;;;;;;;4837862;29;20069;-89
2023/09/27 10:40:44;;;;;;;0.13;0.13;;;;;;;;;;4792774;29;20054;-88
2023/09/27 10:43:10;;;;;;;0.10;0.10;;;;;;;;;;4837200;29;20045;-89
2023/09/27 10:45:36;;;;;;;0.10;0.10;;;;;;;;;;4807440;29;20078;-89
2023/09/27 10:48:18;;;;;;;0.20;0.20;;;;;;;;;;4821705;29;20082;-89
2023/09/27 10:50:56;;;;;;;0.10;0.10;;;;;;;;;;4792198;29;20391;-88
2023/09/27 10:53:22;;;;;;;0.20;0.20;;;;;;;;;;4822124;29;20066;-90
2023/09/27 10:55:48;;;;;;;0.10;0.10;;;;;;;;;;4792518;29;20111;-91
2023/09/27 10:58:15;;;;;;;0.10;0.10;;;;;;;;;;4807402;29;20090;-90
2023/09/27 11:00:57;;;;;;;0.10;0.10;;;;;;;;;;4807287;29;20126;-89
2023/09/27 11:03:29;;;;;;;0.20;0.20;;;;;;;;;;4792825;29;20139;-89
2023/09/27 11:05:55;;;;;;;0.10;0.10;;;;;;;;;;4821885;29;20049;-88
2023/09/27 11:08:25;;;;;;;0.20;0.20;;;;;;;;;;4821902;29;20106;-87
2023/09/27 11:10:52;;;;;;;0.20;0.20;;;;;;;;;;4809107;29;20054;-87
2023/09/27 11:13:18;;;;;;;0.10;0.10;;;;;;;;;;4840425;29;20539;-86
2023/09/27 11:15:44;;;;;;;0.20;0.20;;;;;;;;;;4810085;29;20134;-84
2023/09/27 11:18:10;;;;;;;0.20;0.20;;;;;;;;;;4840614;29;20467;-86
2023/09/27 11:20:37;;;;;;;0.20;0.20;;;;;;;;;;4810252;29;20074;-88
2023/09/27 11:23:03;;;;;;;0.20;0.20;;;;;;;;;;4810451;29;20080;-89
2023/09/27 11:25:32;;;;;;;0.20;0.20;;;;;;;;;;4810490;29;20081;-88
2023/09/27 11:27:58;;;;;;;0.20;0.20;;;;;;;;;;4794787;29;20541;-89
2023/09/27 11:30:30;;;;;;;0.10;0.10;;;;;;;;;;4824783;29;20137;-88
2023/09/27 11:32:56;;;;;;;0.10;0.10;;;;;;;;;;4810270;29;20125;-89
2023/09/27 11:35:24;;;;;;;0.10;0.10;;;;;;;;;;4809635;29;20055;-88
2023/09/27 11:37:50;;;;;;;0.15;0.15;;;;;;;;;;4809955;29;20046;-88
2023/09/27 11:40:16;;;;;;;0.10;0.10;;;;;;;;;;4810003;29;20046;-88
2023/09/27 11:42:49;;;;;;;0.10;0.10;;;;;;;;;;4810397;29;20047;-88
2023/09/27 11:45:14;;;;;;;0.15;0.15;;;;;;;;;;4824566;29;20106;-87
2023/09/27 11:47:50;;;;;;;0.20;0.20;;;;;;;;;;4809658;29;20117;-86
2023/09/27 11:50:16;;;;;;;0.20;0.20;;;;;;;;;;4840014;29;20049;-87
2023/09/27 11:52:48;;;;;;;0.20;0.20;;;;;;;;;;4795240;29;20054;-86
2023/09/27 11:55:18;;;;;;;0.10;0.10;;;;;;;;;;4811151;29;20054;-86
2023/09/27 11:57:44;;;;;;;0.10;0.10;;;;;;;;;;4811194;29;20042;-87
2023/09/27 12:00:15;;;;;;;0.10;0.10;;;;;;;;;;4794409;29;20041;-87
2023/09/27 12:02:41;;;;;;;0.10;0.10;;;;;;;;;;4840038;29;20054;-87
2023/09/27 12:05:07;;;;;;;0.20;0.20;;;;;;;;;;4794323;29;20050;-87
2023/09/27 12:07:33;;;;;;;0.10;0.10;;;;;;;;;;4824341;29;20095;-88
2023/09/27 12:10:00;;;;;;;0.20;0.20;;;;;;;;;;4809736;29;20042;-88
2023/09/27 12:12:27;;;;;;;0.10;0.10;;;;;;;;;;4839694;29;20424;-87
2023/09/27 12:14:53;;;;;;;0.20;0.20;;;;;;;;;;4839159;29;20486;-87
2023/09/27 12:17:21;;;;;;;0.13;0.13;;;;;;;;;;4794348;29;20039;-88
2023/09/27 12:19:47;;;;;;;0.10;0.10;;;;;;;;;;4809606;29;20106;-88
2023/09/27 12:22:13;;;;;;;0.10;0.10;;;;;;;;;;4808267;29;20043;-88
2023/09/27 12:24:39;;;;;;;0.10;0.10;;;;;;;;;;4839235;29;20494;-88
2023/09/27 12:27:06;;;;;;;0.10;0.10;;;;;;;;;;4809105;29;20398;-89
2023/09/27 12:29:32;;;;;;;0.20;0.20;;;;;;;;;;4839553;29;20199;-89
2023/09/27 12:32:00;;;;;;;0.20;0.20;;;;;;;;;;4809348;29;20068;-88
2023/09/27 12:34:26;;;;;;;0.10;0.10;;;;;;;;;;4839135;29;20053;-86
2023/09/27 12:36:52;;;;;;;0.20;0.20;;;;;;;;;;4808770;29;20047;-86
2023/09/27 12:39:18;;;;;;;0.20;0.20;;;;;;;;;;4808697;29;20046;-86
2023/09/27 12:41:44;;;;;;;0.10;0.10;;;;;;;;;;4808698;29;20049;-86
2023/09/27 12:44:10;;;;;;;0.20;0.20;;;;;;;;;;4836664;29;20125;-87
2023/09/27 12:46:36;;;;;;;0.10;0.10;;;;;;;;;;4822995;29;20230;-86
2023/09/27 12:49:03;;;;;;;0.13;0.13;;;;;;;;;;4808343;29;20053;-86
2023/09/27 12:51:29;;;;;;;0.10;0.10;;;;;;;;;;4793353;29;20138;-87
2023/09/27 12:53:55;;;;;;;0.20;0.20;;;;;;;;;;4807855;29;20081;-86
2023/09/27 12:56:21;;;;;;;0.10;0.10;;;;;;;;;;4837994;29;20047;-86
2023/09/27 12:58:47;;;;;;;0.13;0.13;;;;;;;;;;4824477;29;20053;-86
2023/09/27 13:01:16;;;;;;;0.20;0.20;;;;;;;;;;4808207;29;20125;-87
2023/09/27 13:03:42;;;;;;;0.10;0.10;;;;;;;;;;4792986;29;20091;-87
2023/09/27 13:06:09;;;;;;;0.20;0.20;;;;;;;;;;4808233;29;20050;-86
2023/09/27 13:08:36;;;;;;;0.20;0.20;;;;;;;;;;4823980;29;20050;-86
2023/09/27 13:11:02;;;;;;;0.10;0.10;;;;;;;;;;4823188;29;20054;-86
2023/09/27 13:13:29;;;;;;;0.13;0.13;;;;;;;;;;4822956;29;20534;-86
2023/09/27 13:15:56;;;;;;;0.20;0.20;;;;;;;;;;4807833;29;20050;-87
2023/09/27 13:18:22;;;;;;;0.10;0.10;;;;;;;;;;4793258;29;20099;-85
2023/09/27 13:20:48;;;;;;;0.10;0.10;;;;;;;;;;4807357;29;20411;-86
2023/09/27 13:23:14;;;;;;;0.20;0.20;;;;;;;;;;4807718;29;20093;-87
2023/09/27 13:25:40;;;;;;;0.13;0.13;;;;;;;;;;4807481;29;20122;-86
2023/09/27 13:28:07;;;;;;;0.10;0.10;;;;;;;;;;4822796;29;20565;-87
2023/09/27 13:30:33;;;;;;;0.10;0.10;;;;;;;;;;4807729;29;20046;-86
2023/09/27 13:32:59;;;;;;;0.10;0.10;;;;;;;;;;4823842;29;20047;-87
2023/09/27 13:35:25;;;;;;;0.10;0.10;;;;;;;;;;4807601;29;20049;-89
2023/09/27 13:37:51;;;;;;;0.10;0.10;;;;;;;;;;4807476;29;20039;-89
2023/09/27 13:40:17;;;;;;;0.20;0.20;;;;;;;;;;4807546;29;20560;-88
2023/09/27 13:42:43;;;;;;;0.10;0.10;;;;;;;;;;4822915;29;20046;-87
2023/09/27 13:45:12;;;;;;;0.10;0.10;;;;;;;;;;4822915;29;20103;-87
2023/09/27 13:47:38;;;;;;;0.10;0.10;;;;;;;;;;4807776;29;20457;-88
2023/09/27 13:50:05;;;;;;;0.20;0.20;;;;;;;;;;4807498;29;20125;-88
2023/09/27 13:52:34;;;;;;;0.17;0.17;;;;;;;;;;4807600;29;20206;-88
2023/09/27 13:55:00;;;;;;;0.10;0.10;;;;;;;;;;4822772;29;20129;-87
2023/09/27 13:57:27;;;;;;;0.20;0.20;;;;;;;;;;4822819;29;20125;-88
2023/09/27 13:59:53;;;;;;;0.20;0.20;;;;;;;;;;4822759;29;20165;-87
2023/09/27 14:02:19;;;;;;;0.10;0.10;;;;;;;;;;4807656;29;20056;-87
2023/09/27 14:04:45;;;;;;;0.10;0.10;;;;;;;;;;4807358;29;20117;-87
2023/09/27 14:07:11;;;;;;;0.10;0.10;;;;;;;;;;4822438;29;20045;-87
2023/09/27 14:09:37;;;;;;;0.10;0.10;;;;;;;;;;4807421;29;20046;-86
2023/09/27 14:12:03;;;;;;;0.10;0.10;;;;;;;;;;4807234;29;20050;-87
2023/09/27 14:14:30;;;;;;;0.20;0.20;;;;;;;;;;4792235;29;20046;-86
2023/09/27 14:17:01;;;;;;;0.20;0.20;;;;;;;;;;4807306;29;20054;-86
2023/09/27 14:19:27;;;;;;;0.13;0.13;;;;;;;;;;4822424;29;20049;-86
2023/09/27 14:21:54;;;;;;;0.10;0.10;;;;;;;;;;4822133;29;20046;-87
2023/09/27 14:24:20;;;;;;;0.10;0.10;;;;;;;;;;4792330;29;20047;-86
2023/09/27 14:26:47;;;;;;;0.10;0.10;;;;;;;;;;4807248;29;20527;-86
2023/09/27 14:29:13;;;;;;;0.20;0.20;;;;;;;;;;4806998;29;20186;-86
2023/09/27 14:31:38;;;;;;;0.20;0.20;;;;;;;;;;4822194;29;20054;-87
2023/09/27 14:34:05;;;;;;;0.10;0.10;;;;;;;;;;4822411;29;20046;-87
2023/09/27 14:36:32;;;;;;;0.20;0.20;;;;;;;;;;4821988;29;20160;-87
2023/09/27 14:38:59;;;;;;;0.52;0.50;;;;;;;;;;4806664;29;20064;-88
2023/09/27 14:41:29;;;;;;;0.17;0.17;;;;;;;;;;4822197;29;20080;-87